Terminal Aerodrome Forecast
Issued by NWS Shreveport, LA

Home | Current Version | Previous Version | Text Only | Print | Product List | Glossary On
Versions: 1 2 3 4 5 6 7 8 9 10 11 12 13
254
FTUS44 KSHV 200523
TAFTXK
TAF
KTXK 200523Z 2006/2106 08004KT P6SM SKC
     FM201500 09010KT P6SM SCT250
     FM210300 11004KT P6SM BKN150=

USA.gov is the U.S. government's official web portal to all federal, state and local government web resources and services.